Station MLWW3 - Port of Milwaukee Image indicating link to RSS feed of recent meteorological observations for station MLWW3


Conditions at MLWW3 as of
(4:10 pm CDT)
2110 GMT on 04/16/2024:
     

Click on the graph icon in the table below to see a time series plot of the last five days of that observation.

5-day plot - Wind Direction Wind Direction (WDIR): NE ( 40 deg true )
5-day plot - Wind Speed Wind Speed (WSPD): 7 kts
5-day plot - Wind Gust Wind Gust (GST): 8 kts
5-day plot - Air Temperature Air Temperature (ATMP): 47.7 °F
5-day plot - Wind Chill Wind Chill (CHILL): 43.9 °F
5-day plot -  Wind Speed, Wind Gust and Atmospheric Pressure Combined plot of Wind Speed, Gust, and Air Pressure
Previous observations
TIME
(CDT)
5-day plot - Wind Direction
WDIR
 
5-day plot - Wind Speed
WSPD
kts
5-day plot - Wind Gust
GST
kts
5-day plot - Wave Height
WVHT
ft
5-day plot - Dominant Wave Period
DPD
sec
5-day plot - Average Wave Period
APD
sec
5-day plot - Mean Wave Direction
MWD
 
5-day plot - Atmospheric Pressure
PRES
in
5-day plot - Pressure Tendency
PTDY
in
5-day plot - Air Temperature
ATMP
°F
5-day plot - Water Temperature
WTMP
°F
5-day plot - Dew Point
DEWP
°F
5-day plot - Salinity
SAL
psu
5-day plot - Visibility
VIS
nmi
5-day plot - Tide (above MLLW)
TIDE
ft
2024-04-16 04:00 pm NE 5 6------ 47.7-----
2024-04-16 03:50 pmENE 5 6------ 48.0-----
2024-04-16 03:40 pm NE 8 10------ 47.5-----
2024-04-16 03:30 pmNNE 7 9------ 46.8-----
2024-04-16 03:20 pmNNE 7 8------ 48.0-----
2024-04-16 03:10 pmNNE 5 6------ 47.8-----
2024-04-16 03:00 pmNNE 6 6------ 47.3-----
2024-04-16 02:50 pm NE 5 6------ 47.7-----
2024-04-16 02:40 pm NE 5 5------ 47.8-----
2024-04-16 02:30 pm NE 5 6------ 47.5-----
2024-04-16 02:20 pmNNE 4 5------ 47.3-----
2024-04-16 02:10 pmNNE 4 5------ 47.3-----
2024-04-16 02:00 pm NE 6 7------ 47.3-----
2024-04-16 01:50 pmENE 4 5------ 48.2-----
2024-04-16 01:40 pm E 3 4------ 48.2-----
2024-04-16 01:30 pm E 5 8------ 48.0-----
2024-04-16 01:20 pmENE 8 11------ 47.8-----
2024-04-16 01:10 pm NE 8 10------ 46.8-----
2024-04-16 01:00 pm NE 6 7------ 46.8-----
2024-04-16 12:50 pmENE 9 10------ 47.1-----
2024-04-16 12:40 pm NE 9 10------ 46.0-----
2024-04-16 12:30 pm NE 9 11------ 46.0-----
2024-04-16 12:20 pmENE 7 8------ 46.6-----
2024-04-16 12:10 pmENE 10 11------ 47.1-----
2024-04-16 12:00 pm E 10 12------ 47.1-----
2024-04-16 11:50 amENE 8 9------ 47.3-----
2024-04-16 11:40 am E 9 10------ 47.1-----
2024-04-16 11:30 am E 8 9------ 47.1-----
2024-04-16 11:20 am E 6 7------ 47.3-----
2024-04-16 11:10 amENE 4 5------ 47.3-----
2024-04-16 11:00 am E 7 8------ 46.9-----
2024-04-16 10:50 am E 7 8------ 47.3-----
2024-04-16 10:40 am E 7 8------ 47.1-----
2024-04-16 10:30 am E 7 8------ 46.9-----
2024-04-16 10:20 amESE 6 7------ 46.2-----
2024-04-16 10:10 am E 6 7------ 46.2-----
2024-04-16 10:00 am E 5 7------ 46.6-----
2024-04-16 09:50 amENE 6 8------ 45.9-----
2024-04-16 09:40 am NE 4 6------ 45.5-----
2024-04-16 09:30 amENE 4 5------ 45.3-----
2024-04-16 09:20 amENE 5 6------ 46.0-----
2024-04-16 09:10 amENE 5 6------ 46.6-----
2024-04-16 09:00 amENE 5 5------ 46.4-----
2024-04-16 08:50 amENE 3 4------ 46.2-----
2024-04-16 08:40 amENE 4 5------ 46.0-----
2024-04-16 08:30 amENE 5 6------ 45.5-----
2024-04-16 08:20 amENE 6 7------ 45.1-----
2024-04-16 08:10 amENE 6 8------ 45.0-----
2024-04-16 08:00 amENE 8 9------ 44.6-----
2024-04-16 07:50 am NE 10 11------ 44.4-----
2024-04-16 07:40 am NE 9 10------ 44.2-----
2024-04-16 07:30 am NE 8 8------ 44.4-----
2024-04-16 07:20 am NE 9 10------ 44.4-----
2024-04-16 07:10 am NE 8 9------ 44.4-----
2024-04-16 07:00 am NE 8 8------ 44.4-----
2024-04-16 06:50 am NE 7 8------ 44.6-----
2024-04-16 06:40 am NE 7 7------ 44.8-----
2024-04-16 06:30 am NE 6 6------ 44.6-----
2024-04-16 06:20 am NE 6 7------ 44.8-----
2024-04-16 06:10 am NE 6 6------ 44.6-----
2024-04-16 06:00 am NE 5 6------ 44.6-----
2024-04-16 05:50 am NE 4 4------ 44.8-----
2024-04-16 05:40 am NE 3 4------ 44.6-----
2024-04-16 05:30 am NE 4 5------ 44.8-----
2024-04-16 05:20 am NE 5 5------ 44.8-----
2024-04-16 05:10 am NE 5 6------ 44.8-----
2024-04-16 05:00 am NE 6 6------ 44.6-----
2024-04-16 04:50 am NE 5 6------ 44.6-----
2024-04-16 04:40 am NE 5 5------ 44.6-----
2024-04-16 04:30 am NE 6 7------ 44.8-----
2024-04-16 04:20 am NE 7 8------ 44.8-----
2024-04-16 04:10 am NE 6 6------ 44.8-----
2024-04-16 04:00 am NE 5 6------ 44.8-----
2024-04-16 03:50 am NE 5 7------ 45.1-----
2024-04-16 03:40 amENE 6 7------ 45.3-----
2024-04-16 03:30 amENE 7 9------ 45.5-----
2024-04-16 03:20 amENE 8 10------ 45.5-----
2024-04-16 03:10 amENE 10 12------ 45.9-----
2024-04-16 03:00 amENE 11 12------ 45.5-----
2024-04-16 02:50 am NE 11 13------ 45.3-----
2024-04-16 02:40 am NE 14 16------ 45.1-----
2024-04-16 02:30 am NE 14 16------ 45.7-----
2024-04-16 02:20 am NE 14 15------ 45.1-----
2024-04-16 02:10 am NE 15 17------ 45.3-----
2024-04-16 02:00 am NE 15 17------ 45.5-----
2024-04-16 01:50 amNNE 15 17------ 45.9-----
2024-04-16 01:40 am NE 15 16------ 45.9-----
2024-04-16 01:30 amNNE 14 16------ 46.0-----
2024-04-16 01:20 amNNE 15 16------ 46.2-----
2024-04-16 01:10 amNNE 15 17------ 46.6-----
2024-04-16 01:00 amNNE 15 17------ 46.8-----
2024-04-16 12:50 amNNE 13 15------ 47.5-----
2024-04-16 12:40 amNNE 10 12------ 47.8-----
2024-04-16 12:30 amNNE 10 12------ 48.0-----
2024-04-16 12:20 amNNE 10 11------ 47.3-----
2024-04-16 12:10 amNNE 10 12------ 47.7-----
2024-04-16 12:00 amNNE 9 10------ 47.3-----
2024-04-15 11:50 pmNNE 9 10------ 47.5-----
2024-04-15 11:40 pmNNE 7 9------ 47.7-----
2024-04-15 11:30 pmNNE 8 9------ 47.8-----
2024-04-15 11:20 pmNNE 8 10------ 48.0-----
2024-04-15 11:10 pmNNE 7 8------ 47.5-----
2024-04-15 11:00 pmNNE 6 6------ 47.5-----
2024-04-15 10:50 pm NE 5 6------ 47.3-----
2024-04-15 10:40 pmENE 4 5------ 47.1-----
2024-04-15 10:30 pmENE 4 4------ 47.3-----
2024-04-15 10:20 pmENE 5 6------ 47.5-----
2024-04-15 10:10 pm NE 5 5------ 47.8-----
2024-04-15 10:00 pmNNE 4 4------ 47.3-----
2024-04-15 09:50 pmNNE 3 4------ 47.1-----
2024-04-15 09:40 pmNNE 3 5------ 46.9-----
2024-04-15 09:30 pm NE 1 2------ 46.8-----
2024-04-15 09:20 pm NE 3 5------ 46.9-----
2024-04-15 09:10 pmNNE 4 5------ 46.6-----
2024-04-15 09:00 pm NE 7 8------ 46.4-----
2024-04-15 08:50 pmNNE 9 10------ 46.0-----
2024-04-15 08:40 pm NE 8 8------ 45.9-----
2024-04-15 08:30 pm NE 10 14------ 45.9-----
2024-04-15 08:20 pm E 4 6------ 45.7-----
2024-04-15 08:10 pm E 5 5------ 45.7-----
2024-04-15 08:00 pmENE 5 6------ 45.5-----
2024-04-15 07:50 pmENE 6 6------ 45.9-----
2024-04-15 07:40 pmENE 4 5------ 46.6-----
2024-04-15 07:30 pmENE 3 3------ 46.8-----
2024-04-15 07:20 pm NE 3 4------ 47.5-----
2024-04-15 07:10 pm E 4 4------ 48.0-----
2024-04-15 07:00 pm E 4 5------ 48.2-----
2024-04-15 06:50 pm E 6 7------ 48.6-----
2024-04-15 06:40 pm NE 4 7------ 49.3-----
2024-04-15 06:30 pm SE 9 10------ 49.6-----
2024-04-15 06:20 pm SE 8 10------ 50.4-----
2024-04-15 06:10 pmSSE 2 3------ 50.5-----
2024-04-15 06:00 pm SE 4 5------ 50.2-----
2024-04-15 05:50 pmESE 9 10------ 49.1-----
2024-04-15 05:40 pmENE 5 6------ 51.6-----
2024-04-15 05:30 pm SE 9 9------ 52.0-----
2024-04-15 05:10 pm SE 11 12------ 50.5-----
2024-04-15 05:00 pm SE 11 12------ 51.6-----
2024-04-15 04:10 pm SE 11 12------ 52.5-----
2024-04-15 04:00 pm SE 12 13------ 50.0-----